Time;durP1;ratioP1;P1;durP2;ratioP2;P2;SDS_P1;SDS_P2;PMS_P1;PMS_P2;Temp;Humidity;BMP_temperature;BMP_pressure;BME280_temperature;BME280_humidity;BME280_pressure;Samples;Min_cycle;Max_cycle;Signal;HPM_P1;HPM_P2
2021/11/05 00:01:38;;;;;;;11.23;5.05;;;9.50;60.50;;;;;;6202170;28;20026;-68
2021/11/05 00:04:39;;;;;;;9.55;4.80;;;9.50;60.70;;;;;;6201130;28;20038;-69
2021/11/05 00:07:39;;;;;;;10.55;4.90;;;9.50;60.80;;;;;;6202147;28;20033;-69
2021/11/05 00:10:44;;;;;;;13.65;5.28;;;9.50;61.00;;;;;;6201068;28;20337;-69
2021/11/05 00:13:44;;;;;;;14.13;5.82;;;9.50;61.00;;;;;;6199266;28;20424;-70
2021/11/05 00:16:45;;;;;;;21.60;5.22;;;9.50;60.90;;;;;;6178956;28;20077;-70
2021/11/05 00:19:46;;;;;;;10.23;5.30;;;9.50;60.90;;;;;;6188983;28;20054;-70
2021/11/05 00:22:47;;;;;;;10.77;4.80;;;9.50;60.80;;;;;;6217049;28;20084;-70
2021/11/05 00:25:48;;;;;;;8.65;4.60;;;9.50;60.70;;;;;;6201152;28;20073;-70
2021/11/05 00:28:49;;;;;;;8.80;5.35;;;9.50;60.70;;;;;;6200658;28;20042;-71
2021/11/05 00:31:50;;;;;;;12.32;5.88;;;9.60;60.70;;;;;;6201555;28;20065;-68
2021/11/05 00:34:51;;;;;;;9.13;4.95;;;9.60;60.70;;;;;;6202193;28;20094;-70
2021/11/05 00:37:52;;;;;;;10.93;5.10;;;9.60;60.70;;;;;;6200593;28;20026;-70
2021/11/05 00:40:53;;;;;;;8.52;4.97;;;9.60;60.50;;;;;;6201240;28;20073;-69
2021/11/05 00:43:54;;;;;;;13.98;4.68;;;9.60;60.60;;;;;;6200420;28;20092;-69
2021/11/05 00:46:54;;;;;;;10.80;5.32;;;9.60;60.60;;;;;;6200057;28;20045;-69
2021/11/05 00:49:55;;;;;;;15.07;5.22;;;9.60;60.70;;;;;;6200925;28;20111;-69
2021/11/05 00:52:56;;;;;;;13.82;4.68;;;9.50;60.60;;;;;;6200166;28;20038;-69
2021/11/05 00:55:57;;;;;;;8.52;4.55;;;9.50;60.60;;;;;;6201242;28;20034;-69
2021/11/05 00:58:58;;;;;;;10.27;4.75;;;9.40;60.50;;;;;;6201203;28;20026;-69
2021/11/05 01:01:59;;;;;;;9.20;5.38;;;9.40;60.60;;;;;;6200372;28;20034;-69
2021/11/05 01:05:00;;;;;;;13.07;5.63;;;9.40;60.70;;;;;;6201592;28;20460;-70
2021/11/05 01:08:01;;;;;;;10.70;4.93;;;9.30;60.80;;;;;;6206198;28;20142;-69
2021/11/05 01:11:02;;;;;;;8.50;4.10;;;9.20;60.90;;;;;;6204821;28;20113;-69
2021/11/05 01:14:03;;;;;;;12.02;5.45;;;9.20;60.90;;;;;;6204902;28;20040;-69
2021/11/05 01:17:04;;;;;;;18.67;6.22;;;9.20;61.00;;;;;;6204955;28;20037;-69
2021/11/05 01:20:08;;;;;;;11.70;4.95;;;9.20;61.00;;;;;;6204232;28;20022;-69
2021/11/05 01:23:09;;;;;;;10.80;4.90;;;9.20;61.00;;;;;;6188746;28;20034;-69
2021/11/05 01:26:10;;;;;;;13.63;5.57;;;9.20;61.00;;;;;;6204932;28;20084;-69
2021/11/05 01:29:11;;;;;;;9.73;4.85;;;9.20;61.10;;;;;;6205794;28;20044;-69
2021/11/05 01:32:12;;;;;;;6.95;3.78;;;9.20;61.10;;;;;;6205435;28;20076;-69
2021/11/05 01:35:13;;;;;;;9.07;4.30;;;9.20;61.20;;;;;;6204672;28;20034;-69
2021/11/05 01:38:14;;;;;;;8.35;4.25;;;9.20;61.20;;;;;;6220903;28;20026;-69
2021/11/05 01:41:15;;;;;;;8.75;3.72;;;9.20;61.20;;;;;;6204436;28;20503;-70
2021/11/05 01:44:16;;;;;;;7.30;3.42;;;9.20;61.10;;;;;;6205280;28;20041;-69
2021/11/05 01:47:20;;;;;;;11.23;3.50;;;9.20;61.20;;;;;;6220594;28;20038;-69
2021/11/05 01:50:22;;;;;;;11.43;4.15;;;9.10;61.30;;;;;;6220336;28;20034;-69
2021/11/05 01:53:24;;;;;;;6.15;2.83;;;9.10;61.40;;;;;;6203889;28;20041;-68
2021/11/05 01:56:25;;;;;;;5.20;3.00;;;9.00;61.50;;;;;;6204191;28;20041;-70
2021/11/05 01:59:37;;;;;;;5.47;2.40;;;9.00;61.70;;;;;;6203994;28;20455;-70
2021/11/05 02:02:38;;;;;;;5.57;2.70;;;8.90;61.80;;;;;;6205056;28;20033;-69
2021/11/05 02:05:40;;;;;;;5.43;2.53;;;9.00;61.80;;;;;;6203914;28;20040;-69
2021/11/05 02:08:43;;;;;;;5.80;3.03;;;9.00;61.80;;;;;;6186978;28;20042;-69
2021/11/05 02:11:45;;;;;;;5.38;3.13;;;9.00;61.80;;;;;;6195835;28;20039;-69
2021/11/05 02:14:47;;;;;;;8.43;3.58;;;9.00;61.90;;;;;;6180518;28;20023;-69
2021/11/05 02:17:49;;;;;;;7.43;3.47;;;9.00;61.90;;;;;;6162231;28;20026;-69
2021/11/05 02:20:58;;;;;;;5.95;3.45;;;9.00;61.90;;;;;;6201008;28;20383;-69
2021/11/05 02:23:59;;;;;;;7.90;3.53;;;9.00;62.00;;;;;;6202968;28;20032;-69
2021/11/05 02:27:01;;;;;;;8.75;4.38;;;9.00;62.00;;;;;;6180447;28;20030;-69
2021/11/05 02:30:05;;;;;;;8.60;3.88;;;8.90;62.00;;;;;;6195417;28;20134;-69
2021/11/05 02:33:06;;;;;;;6.95;3.83;;;8.90;62.00;;;;;;6192991;28;20037;-69
2021/11/05 02:36:07;;;;;;;6.70;3.50;;;8.90;62.10;;;;;;6202700;28;20027;-69
2021/11/05 02:39:09;;;;;;;5.63;2.97;;;8.90;62.10;;;;;;6202776;28;20085;-69
2021/11/05 02:42:09;;;;;;;5.28;3.08;;;8.90;62.10;;;;;;6203224;28;20106;-69
2021/11/05 02:45:11;;;;;;;8.90;3.45;;;8.90;62.00;;;;;;6186907;28;20034;-69
2021/11/05 02:48:12;;;;;;;8.30;3.78;;;8.90;62.00;;;;;;6203985;28;20030;-69
2021/11/05 02:51:13;;;;;;;6.47;3.85;;;8.80;62.10;;;;;;6203116;28;20124;-69
2021/11/05 02:54:14;;;;;;;6.90;4.00;;;8.80;62.20;;;;;;6219176;28;20049;-69
2021/11/05 02:57:15;;;;;;;7.45;3.72;;;8.70;62.40;;;;;;6202777;28;20101;-69
2021/11/05 03:00:16;;;;;;;17.35;3.53;;;8.70;62.50;;;;;;6203739;28;20030;-70
2021/11/05 03:03:17;;;;;;;10.60;4.53;;;8.70;62.60;;;;;;6203552;28;20042;-69
2021/11/05 03:06:18;;;;;;;9.10;3.65;;;8.60;62.70;;;;;;6203939;28;20034;-70
2021/11/05 03:09:19;;;;;;;8.52;4.50;;;8.60;62.80;;;;;;6202149;28;20026;-69
2021/11/05 03:12:20;;;;;;;7.35;4.10;;;8.60;62.90;;;;;;6202541;28;20114;-70
2021/11/05 03:15:21;;;;;;;11.20;4.85;;;8.60;62.90;;;;;;6202839;28;20471;-70
2021/11/05 03:18:23;;;;;;;9.55;4.35;;;8.70;62.90;;;;;;6202763;28;20026;-70
2021/11/05 03:21:24;;;;;;;7.93;4.30;;;8.70;62.80;;;;;;6202223;28;20084;-69
2021/11/05 03:24:25;;;;;;;12.60;4.35;;;8.60;62.80;;;;;;6203108;28;20034;-70
2021/11/05 03:27:27;;;;;;;9.40;4.40;;;8.60;62.80;;;;;;6185130;28;20034;-69
2021/11/05 03:30:28;;;;;;;8.35;4.88;;;8.60;62.90;;;;;;6201967;28;20084;-69
2021/11/05 03:33:29;;;;;;;8.10;4.32;;;8.70;63.00;;;;;;6202791;28;20026;-69
2021/11/05 03:36:30;;;;;;;10.27;4.60;;;8.70;63.00;;;;;;6218432;28;20030;-69
2021/11/05 03:39:32;;;;;;;7.45;3.63;;;8.70;62.90;;;;;;6202112;28;20141;-69
2021/11/05 03:42:32;;;;;;;9.30;4.22;;;8.80;62.90;;;;;;6218055;28;20042;-69
2021/11/05 03:45:34;;;;;;;6.72;3.78;;;8.80;62.70;;;;;;6202574;28;20030;-69
2021/11/05 03:48:38;;;;;;;7.60;4.43;;;8.70;62.60;;;;;;6201217;28;20088;-69
2021/11/05 03:51:39;;;;;;;8.02;4.00;;;8.70;62.70;;;;;;6202738;28;20093;-69
2021/11/05 03:54:40;;;;;;;8.48;3.95;;;8.70;62.70;;;;;;6202370;28;20022;-69
2021/11/05 03:57:41;;;;;;;8.93;3.33;;;8.70;62.90;;;;;;6201523;28;20456;-69
2021/11/05 04:00:42;;;;;;;8.40;4.05;;;8.60;62.90;;;;;;6217615;28;20030;-69
2021/11/05 04:03:43;;;;;;;9.27;4.45;;;8.60;62.90;;;;;;6202103;28;20041;-69
2021/11/05 04:06:43;;;;;;;9.75;5.30;;;8.60;63.10;;;;;;6201203;28;20083;-69
2021/11/05 04:09:44;;;;;;;11.38;6.82;;;8.60;63.10;;;;;;6201454;28;20495;-69
2021/11/05 04:12:45;;;;;;;10.50;6.45;;;8.50;63.00;;;;;;6190681;28;20045;-69
2021/11/05 04:15:46;;;;;;;9.63;5.68;;;8.50;63.00;;;;;;6193387;28;20030;-69
2021/11/05 04:18:47;;;;;;;11.13;5.68;;;8.50;63.20;;;;;;6180979;28;20403;-69
2021/11/05 04:21:48;;;;;;;13.80;8.82;;;8.40;63.30;;;;;;6217269;28;20452;-70
2021/11/05 04:24:49;;;;;;;13.57;8.57;;;8.40;63.60;;;;;;6217198;28;20117;-69
2021/11/05 04:27:50;;;;;;;12.57;7.85;;;8.30;64.00;;;;;;6201753;28;20029;-69
2021/11/05 04:30:51;;;;;;;15.63;9.68;;;8.30;63.80;;;;;;6201636;28;20030;-69
2021/11/05 04:33:52;;;;;;;17.00;7.60;;;8.30;63.90;;;;;;6184391;28;20045;-69
2021/11/05 04:36:53;;;;;;;13.18;7.57;;;8.30;64.00;;;;;;6201265;28;20026;-69
2021/11/05 04:39:54;;;;;;;13.43;5.72;;;8.30;64.00;;;;;;6200860;28;20046;-69
2021/11/05 04:42:56;;;;;;;8.55;5.18;;;8.30;64.00;;;;;;6200611;28;20057;-70
2021/11/05 04:45:57;;;;;;;9.55;4.32;;;8.30;64.00;;;;;;6201396;28;20430;-70
2021/11/05 04:48:58;;;;;;;9.90;4.25;;;8.30;64.10;;;;;;6201502;28;20041;-70
2021/11/05 04:51:59;;;;;;;8.60;4.50;;;8.30;64.10;;;;;;6216655;28;20113;-70
2021/11/05 04:55:00;;;;;;;10.57;5.85;;;8.40;64.30;;;;;;6201390;28;20460;-70
2021/11/05 04:58:01;;;;;;;14.82;5.78;;;8.30;64.10;;;;;;6200526;28;20026;-70
2021/11/05 05:01:03;;;;;;;14.15;7.78;;;8.40;64.20;;;;;;6201316;28;20034;-70
2021/11/05 05:04:04;;;;;;;22.40;7.63;;;8.40;64.00;;;;;;6200290;28;20045;-68
2021/11/05 05:07:05;;;;;;;15.43;8.15;;;8.40;64.00;;;;;;6183563;28;20045;-70
2021/11/05 05:10:06;;;;;;;15.95;8.50;;;8.50;63.90;;;;;;6216574;28;20034;-70
2021/11/05 05:13:07;;;;;;;18.85;11.32;;;8.50;64.00;;;;;;6216404;28;20030;-70
2021/11/05 05:16:08;;;;;;;20.90;10.65;;;8.50;63.90;;;;;;6201316;28;20034;-71
2021/11/05 05:19:09;;;;;;;16.95;8.55;;;8.50;63.80;;;;;;6199758;28;20389;-69
2021/11/05 05:22:09;;;;;;;17.05;6.97;;;8.50;63.80;;;;;;6216365;28;20031;-69
2021/11/05 05:25:12;;;;;;;14.70;8.65;;;8.50;63.80;;;;;;6200960;28;20415;-69
2021/11/05 05:28:13;;;;;;;16.77;9.57;;;8.50;63.90;;;;;;6199980;28;20455;-69
2021/11/05 05:31:14;;;;;;;14.90;8.02;;;8.50;63.90;;;;;;6199895;28;20041;-69
2021/11/05 05:34:15;;;;;;;13.32;5.90;;;8.50;63.80;;;;;;6199803;28;20045;-69
2021/11/05 05:37:16;;;;;;;16.02;9.40;;;8.60;63.70;;;;;;6200990;28;20085;-69
2021/11/05 05:40:17;;;;;;;13.63;8.50;;;8.50;63.60;;;;;;6199750;28;20129;-70
2021/11/05 05:43:18;;;;;;;13.68;7.47;;;8.50;63.70;;;;;;6199696;28;20045;-68
2021/11/05 05:46:19;;;;;;;12.65;7.15;;;8.50;63.70;;;;;;6200663;28;20117;-69
2021/11/05 05:49:20;;;;;;;10.27;6.45;;;8.60;63.70;;;;;;6199141;28;20082;-69
2021/11/05 05:52:20;;;;;;;11.40;6.70;;;8.60;63.70;;;;;;6203651;28;20481;-69
2021/11/05 05:55:24;;;;;;;10.63;5.53;;;8.60;63.50;;;;;;6205135;28;20080;-69
2021/11/05 05:58:25;;;;;;;13.00;6.40;;;8.60;63.50;;;;;;6220334;28;20030;-69
2021/11/05 06:01:26;;;;;;;15.88;7.35;;;8.60;63.50;;;;;;6220102;28;20081;-69
2021/11/05 06:04:28;;;;;;;16.92;6.35;;;8.60;63.40;;;;;;6195846;28;20045;-69
2021/11/05 06:07:29;;;;;;;12.10;6.45;;;8.60;63.40;;;;;;6185908;28;20022;-69
2021/11/05 06:10:30;;;;;;;11.07;7.57;;;8.60;63.40;;;;;;6204778;28;20030;-69
2021/11/05 06:13:31;;;;;;;17.20;6.93;;;8.60;63.40;;;;;;6204656;28;20041;-69
2021/11/05 06:16:32;;;;;;;12.05;6.65;;;8.60;63.30;;;;;;6204502;28;20050;-69
2021/11/05 06:19:34;;;;;;;12.73;6.05;;;8.60;63.40;;;;;;6219357;28;20026;-69
2021/11/05 06:22:34;;;;;;;7.00;4.22;;;8.60;63.40;;;;;;6204332;28;20036;-70
2021/11/05 06:25:35;;;;;;;11.07;4.63;;;8.60;63.40;;;;;;6204213;28;20038;-70
2021/11/05 06:28:36;;;;;;;9.25;5.07;;;8.60;63.40;;;;;;6204342;28;20035;-69
2021/11/05 06:31:37;;;;;;;12.75;5.47;;;8.60;63.40;;;;;;6203210;28;20037;-69
2021/11/05 06:34:39;;;;;;;14.05;5.18;;;8.60;63.50;;;;;;6204585;28;20185;-69
2021/11/05 06:37:40;;;;;;;10.70;5.65;;;8.60;63.50;;;;;;6203877;28;20037;-70
2021/11/05 06:40:41;;;;;;;10.23;5.60;;;8.60;63.60;;;;;;6204009;28;20047;-69
2021/11/05 06:43:42;;;;;;;8.63;4.70;;;8.70;63.70;;;;;;6203427;28;20023;-70
2021/11/05 06:46:43;;;;;;;11.27;5.00;;;8.70;63.50;;;;;;6202732;28;20352;-69
2021/11/05 06:49:44;;;;;;;8.43;4.60;;;8.70;63.40;;;;;;6186657;28;20034;-69
2021/11/05 06:52:45;;;;;;;8.55;5.03;;;8.70;63.50;;;;;;6202894;28;20046;-69
2021/11/05 06:55:46;;;;;;;9.82;5.32;;;8.70;63.50;;;;;;6203205;28;20471;-69
2021/11/05 06:58:49;;;;;;;7.95;4.28;;;8.80;63.40;;;;;;6203817;28;20084;-69
2021/11/05 07:01:50;;;;;;;8.20;4.22;;;8.80;63.30;;;;;;6186654;28;20343;-70
2021/11/05 07:04:53;;;;;;;9.70;4.78;;;8.90;63.20;;;;;;6203080;28;20100;-70
2021/11/05 07:07:54;;;;;;;13.93;5.45;;;8.90;63.00;;;;;;6202346;28;20030;-70
2021/11/05 07:10:54;;;;;;;11.85;5.47;;;8.90;63.00;;;;;;6186143;28;20518;-70
2021/11/05 07:13:55;;;;;;;10.02;5.22;;;8.80;63.00;;;;;;6202270;28;20431;-70
2021/11/05 07:16:57;;;;;;;11.80;4.57;;;8.80;63.00;;;;;;6201821;28;20408;-69
2021/11/05 07:19:57;;;;;;;8.63;3.95;;;8.80;63.20;;;;;;6217950;28;20129;-69
2021/11/05 07:22:59;;;;;;;15.95;4.88;;;8.80;63.20;;;;;;6202099;28;20034;-68
2021/11/05 07:26:02;;;;;;;10.70;4.20;;;8.80;63.00;;;;;;6202653;28;20456;-69
2021/11/05 07:29:06;;;;;;;13.50;5.32;;;8.70;63.10;;;;;;6200053;28;20113;-69
2021/11/05 07:32:08;;;;;;;16.08;5.03;;;8.70;63.10;;;;;;6202523;28;20026;-69
2021/11/05 07:35:10;;;;;;;9.38;4.68;;;8.70;63.20;;;;;;6185258;28;20027;-69
2021/11/05 07:38:10;;;;;;;9.45;4.55;;;8.80;63.10;;;;;;6202136;28;20352;-69
2021/11/05 07:41:11;;;;;;;12.20;5.65;;;8.90;62.90;;;;;;6202247;28;20057;-69
2021/11/05 07:44:12;;;;;;;9.73;5.05;;;8.90;62.70;;;;;;6202313;28;20030;-68
2021/11/05 07:47:14;;;;;;;10.18;4.72;;;9.00;62.40;;;;;;6200835;28;20034;-69
2021/11/05 07:50:17;;;;;;;15.30;6.72;;;9.00;62.20;;;;;;6200929;28;20045;-71
2021/11/05 07:53:18;;;;;;;12.27;7.47;;;9.00;62.40;;;;;;6200701;28;20121;-69
2021/11/05 07:56:19;;;;;;;9.73;6.40;;;9.00;62.40;;;;;;6200705;28;20460;-69
2021/11/05 07:59:20;;;;;;;13.77;7.03;;;9.10;62.20;;;;;;6200895;28;20041;-69
2021/11/05 08:02:21;;;;;;;12.95;6.30;;;9.00;62.10;;;;;;6200990;28;20038;-70
2021/11/05 08:05:22;;;;;;;12.18;6.95;;;9.10;62.20;;;;;;6201839;28;20038;-69
2021/11/05 08:08:23;;;;;;;18.63;7.75;;;9.10;62.10;;;;;;6213804;28;20486;-69
2021/11/05 08:11:25;;;;;;;11.27;5.68;;;9.10;62.20;;;;;;6201555;28;20378;-69
2021/11/05 08:14:25;;;;;;;11.07;5.90;;;9.10;62.10;;;;;;6199792;28;20114;-69
2021/11/05 08:17:27;;;;;;;9.38;5.97;;;9.10;62.00;;;;;;6200174;28;20444;-69
2021/11/05 08:20:28;;;;;;;17.30;5.38;;;9.10;62.10;;;;;;6199843;28;20034;-70
2021/11/05 08:23:29;;;;;;;9.73;4.40;;;9.20;62.10;;;;;;6200444;28;20026;-70
2021/11/05 08:26:31;;;;;;;8.02;4.63;;;9.30;61.80;;;;;;6201537;28;20034;-70
2021/11/05 08:29:32;;;;;;;8.40;4.68;;;9.30;61.40;;;;;;6200475;28;20359;-69
2021/11/05 08:32:33;;;;;;;11.10;4.43;;;9.40;61.30;;;;;;6200187;28;20058;-69
2021/11/05 08:35:36;;;;;;;7.85;4.38;;;9.50;61.20;;;;;;6201248;28;20440;-70
2021/11/05 08:38:37;;;;;;;7.53;4.80;;;9.70;61.00;;;;;;6200116;28;20054;-71
2021/11/05 08:41:38;;;;;;;7.15;4.30;;;9.80;60.60;;;;;;6200903;28;20122;-69
2021/11/05 08:44:39;;;;;;;7.20;4.05;;;10.00;60.30;;;;;;6199976;28;20463;-70
2021/11/05 08:47:40;;;;;;;8.70;4.32;;;10.20;59.90;;;;;;6199651;28;20030;-70
2021/11/05 08:50:42;;;;;;;10.38;5.82;;;10.30;59.40;;;;;;6200163;28;20041;-70
2021/11/05 08:53:43;;;;;;;13.18;5.53;;;10.40;59.10;;;;;;6200441;28;20034;-70
2021/11/05 08:56:44;;;;;;;23.55;7.20;;;10.60;58.60;;;;;;6199254;28;20046;-70
2021/11/05 08:59:45;;;;;;;10.40;4.97;;;10.60;58.20;;;;;;6199707;28;20039;-69
2021/11/05 09:02:47;;;;;;;13.25;4.72;;;10.60;58.20;;;;;;6200568;28;20042;-69
2021/11/05 09:05:48;;;;;;;10.57;4.95;;;10.60;58.00;;;;;;6199733;28;20114;-69
2021/11/05 09:08:51;;;;;;;10.13;4.40;;;10.60;57.80;;;;;;6215441;28;20038;-70
2021/11/05 09:11:53;;;;;;;8.57;4.68;;;10.60;57.70;;;;;;6199722;28;20027;-70
2021/11/05 09:14:59;;;;;;;11.50;5.63;;;10.70;57.70;;;;;;6215923;28;20042;-70
2021/11/05 09:18:06;;;;;;;11.70;5.47;;;10.70;57.60;;;;;;6200243;28;20030;-70
2021/11/05 09:21:08;;;;;;;9.73;4.78;;;10.70;57.30;;;;;;6183425;28;20043;-70
2021/11/05 09:24:09;;;;;;;7.90;4.22;;;10.70;57.20;;;;;;6201245;28;20104;-69
2021/11/05 09:27:11;;;;;;;7.75;4.03;;;10.80;57.20;;;;;;6202502;28;20038;-69
2021/11/05 09:30:13;;;;;;;12.77;3.67;;;10.80;57.10;;;;;;6204189;28;20041;-71
2021/11/05 09:33:14;;;;;;;8.75;4.35;;;10.90;56.80;;;;;;6203218;28;20161;-69
2021/11/05 09:36:17;;;;;;;7.55;4.03;;;11.00;56.60;;;;;;6203392;28;20019;-69
2021/11/05 09:39:17;;;;;;;6.07;2.65;;;11.00;56.30;;;;;;6187628;28;20077;-69
2021/11/05 09:42:19;;;;;;;5.63;3.50;;;11.10;56.10;;;;;;6203853;28;20030;-70
2021/11/05 09:45:21;;;;;;;5.88;3.53;;;11.20;55.60;;;;;;6204819;28;20031;-70
2021/11/05 09:48:24;;;;;;;14.05;6.03;;;11.40;55.40;;;;;;6203708;28;20037;-69
2021/11/05 09:51:25;;;;;;;10.95;4.50;;;11.70;55.10;;;;;;6204660;28;20034;-70
2021/11/05 09:54:29;;;;;;;9.05;5.35;;;12.00;54.60;;;;;;6203332;28;20514;-72
2021/11/05 09:57:31;;;;;;;14.85;4.65;;;12.50;53.60;;;;;;6219665;28;20041;-69
2021/11/05 10:00:31;;;;;;;12.68;5.07;;;12.90;52.00;;;;;;6204566;28;20026;-70
2021/11/05 10:03:33;;;;;;;11.23;5.00;;;13.20;51.30;;;;;;6219243;28;20128;-70
2021/11/05 10:06:33;;;;;;;5.35;3.20;;;13.30;50.90;;;;;;6203043;28;20180;-69
2021/11/05 10:09:42;;;;;;;5.78;3.15;;;13.40;50.60;;;;;;6203386;28;20031;-69
2021/11/05 10:13:05;;;;;;;7.72;3.90;;;13.40;50.30;;;;;;6202330;28;20109;-69
2021/11/05 10:16:13;;;;;;;3.28;2.67;;;13.30;50.60;;;;;;6203266;28;20405;-70
2021/11/05 10:19:16;;;;;;;4.82;3.05;;;13.30;50.60;;;;;;6206619;28;20461;-71
2021/11/05 10:22:36;;;;;;;6.85;3.22;;;13.30;50.70;;;;;;6203283;28;20091;-70
2021/11/05 10:25:38;;;;;;;8.63;2.58;;;13.40;50.80;;;;;;6203506;28;20124;-70
2021/11/05 10:28:39;;;;;;;4.22;2.35;;;13.40;50.50;;;;;;6202331;28;20348;-70
2021/11/05 10:31:40;;;;;;;4.80;2.55;;;13.40;50.20;;;;;;6202178;28;20061;-72
2021/11/05 10:34:56;;;;;;;6.88;2.83;;;13.40;49.60;;;;;;6202360;28;20348;-69
2021/11/05 10:38:01;;;;;;;8.30;2.97;;;13.40;49.70;;;;;;6201525;28;20034;-70
2021/11/05 10:41:06;;;;;;;6.85;3.53;;;13.50;49.30;;;;;;6202445;28;20050;-70
2021/11/05 10:44:15;;;;;;;9.25;2.97;;;13.60;48.90;;;;;;6203170;28;20064;-71
2021/11/05 10:47:16;;;;;;;4.40;2.42;;;13.70;48.90;;;;;;6203172;28;20022;-70
2021/11/05 10:50:19;;;;;;;3.70;1.98;;;13.90;48.90;;;;;;6202740;28;20050;-70
2021/11/05 10:53:26;;;;;;;5.40;2.72;;;14.00;48.40;;;;;;6202940;28;20027;-69
2021/11/05 10:56:30;;;;;;;6.13;2.90;;;14.10;48.30;;;;;;6218700;28;20470;-70
2021/11/05 10:59:30;;;;;;;4.30;2.75;;;14.30;47.50;;;;;;6201424;28;20041;-70
2021/11/05 11:02:31;;;;;;;5.85;2.63;;;14.40;47.20;;;;;;6202001;28;20030;-70
2021/11/05 11:05:34;;;;;;;4.78;2.85;;;14.60;46.80;;;;;;6201169;28;20038;-70
2021/11/05 11:08:41;;;;;;;6.20;3.10;;;14.90;46.10;;;;;;6201619;28;20042;-70
2021/11/05 11:11:53;;;;;;;3.63;2.42;;;15.30;45.50;;;;;;6202471;28;20102;-70
2021/11/05 11:14:54;;;;;;;6.28;3.00;;;15.50;45.60;;;;;;6200941;28;20076;-70
2021/11/05 11:17:56;;;;;;;7.13;3.15;;;15.60;45.60;;;;;;6202004;28;20364;-70
2021/11/05 11:20:58;;;;;;;5.18;2.60;;;15.70;45.20;;;;;;6201821;28;20022;-69
2021/11/05 11:24:00;;;;;;;9.13;3.00;;;15.70;45.20;;;;;;6202313;28;20483;-70
2021/11/05 11:27:04;;;;;;;6.30;3.03;;;15.70;44.80;;;;;;6201904;28;20030;-70
2021/11/05 11:30:05;;;;;;;5.85;3.13;;;15.70;44.90;;;;;;6200284;28;20498;-71
2021/11/05 11:33:07;;;;;;;7.10;3.33;;;15.70;45.10;;;;;;6217272;28;20375;-71
2021/11/05 11:36:10;;;;;;;6.28;2.90;;;16.00;44.50;;;;;;6202069;28;20038;-70
2021/11/05 11:39:17;;;;;;;5.75;2.95;;;16.70;43.60;;;;;;6200700;28;20409;-70
2021/11/05 11:42:18;;;;;;;4.57;2.83;;;17.40;42.40;;;;;;6202137;28;20057;-70
2021/11/05 11:45:19;;;;;;;6.93;3.05;;;17.40;41.30;;;;;;6202017;28;20030;-70
2021/11/05 11:48:46;;;;;;;7.97;3.08;;;17.20;41.20;;;;;;6200344;28;20030;-70
2021/11/05 11:51:47;;;;;;;5.10;2.88;;;16.90;41.80;;;;;;6217104;28;20030;-70
2021/11/05 11:54:54;;;;;;;4.80;2.28;;;16.70;42.10;;;;;;6201120;28;20030;-70
2021/11/05 11:58:12;;;;;;;8.10;2.70;;;16.60;42.70;;;;;;6201891;28;20444;-71
2021/11/05 12:01:23;;;;;;;4.88;2.22;;;16.60;43.00;;;;;;6184461;28;20034;-71
2021/11/05 12:04:34;;;;;;;4.95;2.40;;;16.60;43.10;;;;;;6216823;28;20158;-71
2021/11/05 12:07:40;;;;;;;7.22;2.25;;;16.50;43.10;;;;;;6200948;28;20364;-71
2021/11/05 12:10:44;;;;;;;5.40;2.55;;;16.50;43.30;;;;;;6185495;28;20030;-71
2021/11/05 12:14:07;;;;;;;8.63;2.17;;;16.40;43.40;;;;;;6201088;28;20077;-72
2021/11/05 12:17:08;;;;;;;4.15;2.03;;;16.50;43.50;;;;;;6199699;28;20041;-70
2021/11/05 12:20:29;;;;;;;2.70;1.77;;;16.60;43.40;;;;;;6201309;28;20018;-70
2021/11/05 12:23:30;;;;;;;3.80;1.90;;;16.50;43.40;;;;;;6200537;28;20329;-71
2021/11/05 12:26:41;;;;;;;6.90;2.10;;;16.40;43.60;;;;;;6184319;28;20041;-71
2021/11/05 12:29:42;;;;;;;7.80;2.35;;;16.20;43.70;;;;;;6200712;28;20448;-70
2021/11/05 12:32:45;;;;;;;7.53;2.58;;;16.20;43.90;;;;;;6200371;28;20045;-71
2021/11/05 12:35:51;;;;;;;5.05;2.72;;;16.10;44.10;;;;;;6200523;28;20044;-71
2021/11/05 12:39:05;;;;;;;3.97;2.15;;;15.90;44.10;;;;;;6201449;28;20018;-70
2021/11/05 12:42:15;;;;;;;3.35;2.10;;;15.70;44.40;;;;;;6200855;28;20038;-70
2021/11/05 12:45:22;;;;;;;4.15;1.83;;;15.50;44.70;;;;;;6201092;28;20027;-71
2021/11/05 12:51:45;;;;;;;7.65;2.28;;;15.30;45.30;;;;;;6201075;28;20031;-71
2021/11/05 12:54:47;;;;;;;3.78;1.90;;;15.30;45.50;;;;;;6199973;28;20034;-71
2021/11/05 12:57:53;;;;;;;6.25;2.25;;;15.40;45.50;;;;;;6200949;28;20037;-71
2021/11/05 13:00:55;;;;;;;4.72;2.17;;;15.50;45.60;;;;;;6202309;28;20316;-70
2021/11/05 13:04:07;;;;;;;3.78;2.15;;;15.60;45.50;;;;;;6224619;28;20069;-69
2021/11/05 13:07:09;;;;;;;3.97;2.13;;;15.70;45.50;;;;;;6207429;28;20352;-69
2021/11/05 13:10:10;;;;;;;3.05;1.90;;;15.90;45.40;;;;;;6208574;28;20034;-71
2021/11/05 13:13:11;;;;;;;3.15;1.75;;;16.00;45.20;;;;;;6207955;28;20038;-71
2021/11/05 13:16:13;;;;;;;3.05;1.80;;;16.10;45.10;;;;;;6208971;28;20100;-71
2021/11/05 13:19:16;;;;;;;3.08;1.60;;;16.10;45.00;;;;;;6191398;28;20034;-70
2021/11/05 13:22:18;;;;;;;3.40;1.85;;;16.10;45.00;;;;;;6208070;28;20034;-70
2021/11/05 13:25:35;;;;;;;2.50;1.33;;;16.00;45.00;;;;;;6208117;28;20117;-71
2021/11/05 13:28:36;;;;;;;5.65;1.30;;;16.00;45.10;;;;;;6207632;28;20034;-71
2021/11/05 13:31:37;;;;;;;5.03;1.00;;;16.00;45.00;;;;;;6207672;28;20031;-70
2021/11/05 13:34:38;;;;;;;3.10;1.40;;;15.90;45.00;;;;;;6223966;28;20368;-72
2021/11/05 13:37:39;;;;;;;5.15;1.55;;;15.80;45.00;;;;;;6208683;28;20033;-71
2021/11/05 13:41:09;;;;;;;3.17;1.60;;;15.80;45.20;;;;;;6207431;28;20432;-70
2021/11/05 13:44:14;;;;;;;;;;;15.80;45.30;;;;;;6208556;28;20053;-71
2021/11/05 13:47:19;;;;;;;1.77;1.17;;;15.90;45.30;;;;;;6207406;28;19932;-70
2021/11/05 13:50:22;;;;;;;4.20;1.40;;;15.90;45.10;;;;;;6206352;28;20038;-70
2021/11/05 13:53:23;;;;;;;3.35;1.40;;;15.90;45.00;;;;;;6223482;28;20180;-71
2021/11/05 13:56:27;;;;;;;1.10;1.00;;;16.00;45.00;;;;;;6223774;28;20040;-71
2021/11/05 13:59:28;;;;;;;2.00;1.50;;;16.00;45.00;;;;;;6207233;28;20032;-69
2021/11/05 14:02:29;;;;;;;1.50;1.25;;;16.00;45.00;;;;;;6223677;28;20027;-70
2021/11/05 14:05:30;;;;;;;6.38;1.60;;;16.00;45.10;;;;;;6207502;28;20045;-71
2021/11/05 14:08:32;;;;;;;3.58;1.40;;;15.90;45.00;;;;;;6207213;28;20038;-71
2021/11/05 14:11:36;;;;;;;1.40;1.10;;;15.80;45.10;;;;;;6207149;28;20030;-70
2021/11/05 14:14:46;;;;;;;3.65;1.33;;;15.80;45.10;;;;;;6203897;28;20041;-70
2021/11/05 14:17:47;;;;;;;2.75;1.77;;;15.70;45.20;;;;;;6204079;28;20053;-70
2021/11/05 14:20:50;;;;;;;2.80;1.35;;;15.70;45.30;;;;;;6203032;28;20452;-70
2021/11/05 14:24:09;;;;;;;3.22;1.67;;;15.60;45.50;;;;;;6203689;28;20456;-71
2021/11/05 14:27:23;;;;;;;;;;;15.50;45.60;;;;;;6205272;28;20034;-70
2021/11/05 14:30:34;;;;;;;2.30;1.55;;;15.50;45.80;;;;;;6203159;28;19920;-71
2021/11/05 14:33:35;;;;;;;3.30;1.60;;;15.50;45.80;;;;;;6203736;28;20092;-71
2021/11/05 14:36:36;;;;;;;2.60;1.65;;;15.40;45.90;;;;;;6203658;28;20038;-71
2021/11/05 14:39:58;;;;;;;1.58;1.20;;;15.40;46.00;;;;;;6203841;28;20100;-70
2021/11/05 14:43:08;;;;;;;2.25;1.38;;;15.40;46.10;;;;;;6203982;28;20038;-71
2021/11/05 14:46:12;;;;;;;3.55;2.00;;;15.40;46.20;;;;;;6203754;28;20096;-71
2021/11/05 14:49:15;;;;;;;9.77;2.47;;;15.40;46.30;;;;;;6186666;28;20367;-70
2021/11/05 14:52:18;;;;;;;2.42;1.42;;;15.40;46.30;;;;;;6219450;28;20038;-72
2021/11/05 14:55:22;;;;;;;3.45;1.65;;;15.50;46.40;;;;;;6203770;28;20026;-71
2021/11/05 14:58:48;;;;;;;23.08;12.48;;;15.40;46.30;;;;;;6203013;28;20072;-71
2021/11/05 15:01:49;;;;;;;11.70;3.35;;;15.40;46.50;;;;;;6185881;28;20038;-70
2021/11/05 15:04:50;;;;;;;3.60;1.58;;;15.40;46.60;;;;;;6202150;28;20463;-70
2021/11/05 15:08:06;;;;;;;2.95;1.48;;;15.40;46.70;;;;;;6201870;28;20034;-70
2021/11/05 15:11:09;;;;;;;3.60;1.63;;;15.30;46.70;;;;;;6217628;28;20034;-70
2021/11/05 15:14:11;;;;;;;3.70;1.80;;;15.30;46.70;;;;;;6218217;28;20034;-70
2021/11/05 15:17:12;;;;;;;2.55;1.40;;;15.20;46.70;;;;;;6201447;28;20364;-70
2021/11/05 15:20:13;;;;;;;4.22;1.67;;;15.20;46.80;;;;;;6201992;28;20039;-71
2021/11/05 15:23:19;;;;;;;2.28;1.40;;;15.20;46.90;;;;;;6202411;28;20037;-70
2021/11/05 15:26:22;;;;;;;1.90;1.30;;;15.10;46.90;;;;;;6218082;28;20026;-71
2021/11/05 15:29:23;;;;;;;2.47;1.73;;;15.10;46.90;;;;;;6202117;28;20030;-70
2021/11/05 15:32:23;;;;;;;3.17;1.23;;;15.00;47.10;;;;;;6201150;28;20045;-70
2021/11/05 15:35:24;;;;;;;3.20;1.60;;;14.90;47.30;;;;;;6200948;28;20128;-70
2021/11/05 15:38:28;;;;;;;1.80;1.17;;;14.90;47.40;;;;;;6201256;28;20073;-71
2021/11/05 15:41:29;;;;;;;3.58;1.75;;;14.80;47.50;;;;;;6201472;28;20142;-70
2021/11/05 15:44:30;;;;;;;5.10;1.40;;;14.80;47.50;;;;;;6184311;28;20057;-70
2021/11/05 15:47:31;;;;;;;4.43;1.60;;;14.80;47.70;;;;;;6202022;28;20341;-70
2021/11/05 15:50:35;;;;;;;2.88;1.65;;;14.70;47.70;;;;;;6200896;28;20027;-70
2021/11/05 15:53:38;;;;;;;4.68;1.40;;;14.70;47.80;;;;;;6201619;28;20137;-71
2021/11/05 15:56:39;;;;;;;4.22;1.63;;;14.60;47.80;;;;;;6204700;28;20030;-69
2021/11/05 15:59:41;;;;;;;5.82;3.17;;;14.60;47.90;;;;;;6206213;28;20475;-70